Map

Track Data

SID SEASON NUMBER BASIN SUBBASIN NAME ISO_TIME NATURE LAT LON WMO_WIND WMO_PRES WMO_AGENCY TRACK_TYPE DIST2LAND LANDFALL IFLAG USA_AGENCY USA_ATCF_ID USA_LAT USA_LON USA_RECORD USA_STATUS USA_WIND USA_PRES USA_SSHS USA_R34_NE USA_R34_SE USA_R34_SW USA_R34_NW USA_R50_NE USA_R50_SE USA_R50_SW USA_R50_NW USA_R64_NE USA_R64_SE USA_R64_SW USA_R64_NW USA_POCI USA_ROCI USA_RMW USA_EYE TOKYO_LAT TOKYO_LON TOKYO_GRADE TOKYO_WIND TOKYO_PRES TOKYO_R50_DIR TOKYO_R50_LONG TOKYO_R50_SHORT TOKYO_R30_DIR TOKYO_R30_LONG TOKYO_R30_SHORT TOKYO_LAND CMA_LAT CMA_LON CMA_CAT CMA_WIND CMA_PRES HKO_LAT HKO_LON HKO_CAT HKO_WIND HKO_PRES NEWDELHI_LAT NEWDELHI_LON NEWDELHI_GRADE NEWDELHI_WIND NEWDELHI_PRES NEWDELHI_CI NEWDELHI_DP NEWDELHI_POCI REUNION_LAT REUNION_LON REUNION_TYPE REUNION_WIND REUNION_PRES REUNION_TNUM REUNION_CI REUNION_RMW REUNION_R34_NE REUNION_R34_SE REUNION_R34_SW REUNION_R34_NW REUNION_R50_NE REUNION_R50_SE REUNION_R50_SW REUNION_R50_NW REUNION_R64_NE REUNION_R64_SE REUNION_R64_SW REUNION_R64_NW BOM_LAT BOM_LON BOM_TYPE BOM_WIND BOM_PRES BOM_TNUM BOM_CI BOM_RMW BOM_R34_NE BOM_R34_SE BOM_R34_SW BOM_R34_NW BOM_R50_NE BOM_R50_SE BOM_R50_SW BOM_R50_NW BOM_R64_NE BOM_R64_SE BOM_R64_SW BOM_R64_NW BOM_ROCI BOM_POCI BOM_EYE BOM_POS_METHOD BOM_PRES_METHOD NADI_LAT NADI_LON NADI_CAT NADI_WIND NADI_PRES WELLINGTON_LAT WELLINGTON_LON WELLINGTON_WIND WELLINGTON_PRES DS824_LAT DS824_LON DS824_STAGE DS824_WIND DS824_PRES TD9636_LAT TD9636_LON TD9636_STAGE TD9636_WIND TD9636_PRES TD9635_LAT TD9635_LON TD9635_WIND TD9635_PRES TD9635_ROCI NEUMANN_LAT NEUMANN_LON NEUMANN_CLASS NEUMANN_WIND NEUMANN_PRES MLC_LAT MLC_LON MLC_CLASS MLC_WIND MLC_PRES USA_GUST BOM_GUST BOM_GUST_PER REUNION_GUST REUNION_GUST_PER USA_SEAHGT USA_SEARAD_NE USA_SEARAD_SE USA_SEARAD_SW USA_SEARAD_NW STORM_SPEED STORM_DIR
1918234N12303 1918 49 NA NA NOT_NAMED 1918-08-22 06:00:00 TS 12.0000 -57.5000 60 hurdat_atl main 408 338 O_____________ hurdat_atl AL021918 12.0000 -57.5000 TS 60 0 15 274
1918234N12303 1918 49 NA NA NOT_NAMED 1918-08-22 09:00:00 TS 12.0454 -58.2449 main 338 268 P_____________ AL021918 12.0454 -58.2449 TS 60 0 15 274
1918234N12303 1918 49 NA NA NOT_NAMED 1918-08-22 12:00:00 TS 12.1000 -59.0000 60 hurdat_atl main 268 219 O_____________ hurdat_atl AL021918 12.1000 -59.0000 TS 60 0 15 275
1918234N12303 1918 49 NA CS NOT_NAMED 1918-08-22 15:00:00 TS 12.1772 -59.7777 main 212 184 P_____________ AL021918 12.1772 -59.7777 TS 60 0 16 277
1918234N12303 1918 49 NA CS NOT_NAMED 1918-08-22 18:00:00 TS 12.3000 -60.6000 60 hurdat_atl main 184 180 O_____________ hurdat_atl AL021918 12.3000 -60.6000 TS 60 0 17 280
1918234N12303 1918 49 NA CS NOT_NAMED 1918-08-22 21:00:00 TS 12.4772 -61.4701 main 201 201 P_____________ AL021918 12.4772 -61.4701 TS 60 0 18 283
1918234N12303 1918 49 NA CS NOT_NAMED 1918-08-23 00:00:00 TS 12.7000 -62.4000 60 hurdat_atl main 223 223 O_____________ hurdat_atl AL021918 12.7000 -62.4000 TS 60 0 19 284
1918234N12303 1918 49 NA CS NOT_NAMED 1918-08-23 03:00:00 TS 12.9422 -63.3776 main 248 248 P_____________ AL021918 12.9422 -63.3776 TS 60 0 20 284
1918234N12303 1918 49 NA CS NOT_NAMED 1918-08-23 06:00:00 TS 13.2000 -64.4000 60 hurdat_atl main 291 291 O_____________ hurdat_atl AL021918 13.2000 -64.4000 TS 60 0 21 284
1918234N12303 1918 49 NA CS NOT_NAMED 1918-08-23 09:00:00 TS 13.4573 -65.4575 main 329 325 P_____________ AL021918 13.4573 -65.4575 TS 60 0 21 284
1918234N12303 1918 49 NA CS NOT_NAMED 1918-08-23 12:00:00 TS 13.7000 -66.5000 60 hurdat_atl main 347 318 O_____________ hurdat_atl AL021918 13.7000 -66.5000 TS 60 0 20 283
1918234N12303 1918 49 NA CS NOT_NAMED 1918-08-23 15:00:00 TS 13.9069 -67.4578 main 313 283 P_____________ AL021918 13.9069 -67.4578 TS 60 0 19 282
1918234N12303 1918 49 NA CS NOT_NAMED 1918-08-23 18:00:00 TS 14.1000 -68.4000 60 hurdat_atl main 276 250 O_____________ hurdat_atl AL021918 14.1000 -68.4000 TS 60 0 19 282
1918234N12303 1918 49 NA CS NOT_NAMED 1918-08-23 21:00:00 TS 14.2998 -69.4001 main 252 248 P_____________ AL021918 14.2998 -69.4001 TS 60 0 20 282
1918234N12303 1918 49 NA CS NOT_NAMED 1918-08-24 00:00:00 TS 14.5000 -70.4000 60 hurdat_atl main 263 252 O_____________ hurdat_atl AL021918 14.5000 -70.4000 TS 60 0 19 282
1918234N12303 1918 49 NA CS NOT_NAMED 1918-08-24 03:00:00 TS 14.7068 -71.3426 main 258 257 P_____________ AL021918 14.7068 -71.3426 TS 62 0 19 282
1918234N12303 1918 49 NA CS NOT_NAMED 1918-08-24 06:00:00 TS 14.9000 -72.3000 65 hurdat_atl main 287 287 O_____________ hurdat_atl AL021918 14.9000 -72.3000 HU 65 1 20 281
1918234N12303 1918 49 NA CS NOT_NAMED 1918-08-24 09:00:00 TS 15.0723 -73.3425 main 328 313 P_____________ AL021918 15.0723 -73.3425 HU 67 1 21 278
1918234N12303 1918 49 NA CS NOT_NAMED 1918-08-24 12:00:00 TS 15.2000 -74.4000 70 hurdat_atl main 317 306 O_____________ hurdat_atl AL021918 15.2000 -74.4000 HU 70 1 20 276
1918234N12303 1918 49 NA CS NOT_NAMED 1918-08-24 15:00:00 TS 15.2640 -75.3778 main 303 285 P_____________ AL021918 15.2640 -75.3778 HU 72 1 19 273
1918234N12303 1918 49 NA CS NOT_NAMED 1918-08-24 18:00:00 TS 15.3000 -76.4000 75 hurdat_atl main 281 268 O_____________ hurdat_atl AL021918 15.3000 -76.4000 HU 75 1 21 272
1918234N12303 1918 49 NA CS NOT_NAMED 1918-08-24 21:00:00 TS 15.3502 -77.5925 main 260 260 P_____________ AL021918 15.3502 -77.5925 HU 77 1 23 272
1918234N12303 1918 49 NA CS NOT_NAMED 1918-08-25 00:00:00 TS 15.4000 -78.8000 80 hurdat_atl main 303 303 O_____________ hurdat_atl AL021918 15.4000 -78.8000 HU 80 1 22 273
1918234N12303 1918 49 NA CS NOT_NAMED 1918-08-25 03:00:00 TS 15.4492 -79.8725 main 346 253 P_____________ AL021918 15.4492 -79.8725 HU 82 1 20 273
1918234N12303 1918 49 NA CS NOT_NAMED 1918-08-25 06:00:00 TS 15.5000 -80.9000 85 hurdat_atl main 242 140 O_____________ hurdat_atl AL021918 15.5000 -80.9000 HU 85 2 20 273
1918234N12303 1918 49 NA CS NOT_NAMED 1918-08-25 09:00:00 TS 15.5419 -81.9427 main 140 63 P_____________ AL021918 15.5419 -81.9427 HU 87 2 20 273
1918234N12303 1918 49 NA CS NOT_NAMED 1918-08-25 12:00:00 TS 15.6000 -83.0000 90 968 hurdat_atl main 54 11 O_____________ hurdat_atl AL021918 15.6000 -83.0000 HU 90 968 2 21 274
1918234N12303 1918 49 NA CS NOT_NAMED 1918-08-25 15:00:00 TS 15.6843 -84.0777 main 10 0 P_____________ AL021918 15.6843 -84.0777 HU 85 2 21 275
1918234N12303 1918 49 NA NA NOT_NAMED 1918-08-25 18:00:00 TS 15.8000 -85.2000 80 hurdat_atl main 0 0 O_____________ hurdat_atl AL021918 15.8000 -85.2000 HU 80 1 23 276
1918234N12303 1918 49 NA CS NOT_NAMED 1918-08-25 21:00:00 TS 15.9353 -86.4300 main 11 11 P_____________ AL021918 15.9353 -86.4300 HU 75 1 23 277
1918234N12303 1918 49 NA CS NOT_NAMED 1918-08-26 00:00:00 TS 16.1000 -87.6000 70 hurdat_atl main 33 10 O_____________ hurdat_atl AL021918 16.1000 -87.6000 HU 70 1 21 280
1918234N12303 1918 49 NA CS NOT_NAMED 1918-08-26 03:00:00 TS 16.2842 -88.5602 main 0 0 P_____________ AL021918 16.2842 -88.5602 HU 57 0 18 283
1918234N12303 1918 49 NA NA NOT_NAMED 1918-08-26 06:00:00 TS 16.5000 -89.4000 45 hurdat_atl main 0 0 O_____________ hurdat_atl AL021918 16.5000 -89.4000 TS 45 0 16 286
1918234N12303 1918 49 NA NA NOT_NAMED 1918-08-26 09:00:00 TS 16.7433 -90.2046 main 0 0 P_____________ AL021918 16.7433 -90.2046 TS 37 0 16 288
1918234N12303 1918 49 NA NA NOT_NAMED 1918-08-26 12:00:00 TS 17.0000 -91.0000 30 hurdat_atl main 0 O_____________ hurdat_atl AL021918 17.0000 -91.0000 TD 30 -1 16 289

About IBTrACS Database

This database is a web-friendly format of International Best Track Archive for Climate Stewardship (IBTrACS), a global best track data archive curated by NOAA dating back to 1842.

Updated: 2021-11-26